首页
METAR-TAF:

METAR-TAF

机场 :

约翰·卡尔·芒罗哈密尔顿国际机场

哈密尔顿, 安大略省, 加拿大

纬度: 43-10N, 经度: 079-56W, 海拔: 237米

当前天气观测

该预报发布于53分钟前的16:00 UTC
风速7节,风向西
温度 4°C
湿度 81%
气压 1020 hPa
能見度: 12.9公里
阴天层高于5500英尺

METAR: CYHM 201600Z 27007KT 8SM OVC055 04/01 A3011 RMK SC8 SLP207

时间: 11:53 (16:53 UTC)

预报

该预报发布于4小时和33分钟前的12:20 UTC
预报有效从20日的 12点(UTC)到 21日的 12点(UTC)
风速3节,风向多变
能見度: 10公里
多云层高于3000英尺
阴天层高于5000英尺
短暂存在
从 20日的 12点(UTC)到 20日的 14点(UTC)
多云层高于2000英尺
轻雾
从 20日的 1400点(UTC)
风速8节,风向西
能見度: 10公里
阴天层高于5000英尺
几率 30%
从 20日的 14点(UTC)到 20日的 16点(UTC)
能見度: 6.4公里
多云层高于500英尺
阴天层高于5000英尺
轻雾
从 20日的 1600点(UTC)
风速8节,风向西
能見度: 10公里
散云层高于1500英尺
多云层高于3000英尺
短暂存在
从 20日的 16点(UTC)到 20日的 20点(UTC)
多云层高于1500英尺
多云层高于3000英尺
从 20日的 2000点(UTC)
风速8节,风向西
能見度: 10公里
多云层高于2500英尺
从 21日的 0300点(UTC)
风速6节,风向西
能見度: 6.4公里
散云层高于2500英尺
轻雾
几率 30%
从 21日的 07点(UTC)到 21日的 12点(UTC)
能見度: 0.8公里
层高于200英尺
冻雾

TAF: CYHM 201220Z 2012/2112 VRB03KT P6SM BKN030 OVC050 TEMPO 2012/2014 11/2SM BR BKN020 FM201400 28008KT P6SM OVC050 PROB30 2014/2016 4SM BR BKN005 OVC050 FM201600 28008KT P6SM SCT015 BKN030 TEMPO 2016/2020 BKN015 BKN030 FM202000 27008KT P6SM BKN025 FM210300 27006KT 4SM BR SCT025 PROB30 2107/2112 1/2SM FZFG VV002 RMK NXT FCST BY 201800Z

超过4000个机场的气象观测和天气预报(METAR&TAF报告)。

可查询的气象台以黄色和红色小点在地图上表示。

将鼠标移到小点上方,可查看气象台名称。

然后点击查看天气观测和预报。

如需切换地图:点击带黑十字的绿色按钮放大地图;点击带横线的绿色按钮缩小地图;或者点击绿色箭头查看邻近地区的地图。


METAR-TAF: